sensor_id;sensor_type;location;lat;lon;timestamp;pressure;altitude;pressure_sealevel;temperature;humidity
39083;BME280;24834;44.444;26.098;2022-12-04T00:03:14;102148.41;;;5.19;
39083;BME280;24834;44.444;26.098;2022-12-04T00:09:18;102138.19;;;5.17;
39083;BME280;24834;44.444;26.098;2022-12-04T00:15:21;102146.19;;;5.15;
39083;BME280;24834;44.444;26.098;2022-12-04T00:21:27;102146.41;;;5.21;
39083;BME280;24834;44.444;26.098;2022-12-04T00:27:29;102149.78;;;5.14;
39083;BME280;24834;44.444;26.098;2022-12-04T00:33:32;102143.41;;;5.17;
39083;BME280;24834;44.444;26.098;2022-12-04T00:39:34;102147.13;;;5.01;
39083;BME280;24834;44.444;26.098;2022-12-04T00:45:37;102151.50;;;4.94;
39083;BME280;24834;44.444;26.098;2022-12-04T00:51:39;102146.31;;;5.01;
39083;BME280;24834;44.444;26.098;2022-12-04T00:57:41;102152.34;;;5.01;
39083;BME280;24834;44.444;26.098;2022-12-04T01:03:45;102145.16;;;5.03;
39083;BME280;24834;44.444;26.098;2022-12-04T01:09:48;102138.31;;;5.09;
39083;BME280;24834;44.444;26.098;2022-12-04T01:15:51;102133.91;;;5.09;
39083;BME280;24834;44.444;26.098;2022-12-04T01:21:54;102140.00;;;5.17;
39083;BME280;24834;44.444;26.098;2022-12-04T01:27:57;102140.59;;;5.25;
39083;BME280;24834;44.444;26.098;2022-12-04T01:33:59;102138.00;;;5.32;
39083;BME280;24834;44.444;26.098;2022-12-04T01:40:02;102144.44;;;5.23;
39083;BME280;24834;44.444;26.098;2022-12-04T01:46:06;102153.06;;;5.30;
39083;BME280;24834;44.444;26.098;2022-12-04T01:52:13;102137.78;;;5.20;
39083;BME280;24834;44.444;26.098;2022-12-04T01:58:23;102138.38;;;5.15;
39083;BME280;24834;44.444;26.098;2022-12-04T02:04:29;102131.16;;;5.18;
39083;BME280;24834;44.444;26.098;2022-12-04T02:10:41;102128.72;;;5.09;
39083;BME280;24834;44.444;26.098;2022-12-04T02:16:52;102117.88;;;4.99;
39083;BME280;24834;44.444;26.098;2022-12-04T02:29:43;102120.75;;;5.18;
39083;BME280;24834;44.444;26.098;2022-12-04T02:35:55;102121.88;;;5.08;
39083;BME280;24834;44.444;26.098;2022-12-04T02:42:09;102131.72;;;5.13;
39083;BME280;24834;44.444;26.098;2022-12-04T02:48:17;102125.16;;;5.17;
39083;BME280;24834;44.444;26.098;2022-12-04T02:54:26;102121.41;;;5.39;
39083;BME280;24834;44.444;26.098;2022-12-04T03:00:31;102118.16;;;5.44;
39083;BME280;24834;44.444;26.098;2022-12-04T03:06:38;102133.69;;;5.65;
39083;BME280;24834;44.444;26.098;2022-12-04T03:18:57;102147.63;;;5.25;
39083;BME280;24834;44.444;26.098;2022-12-04T03:25:02;102123.94;;;5.26;
39083;BME280;24834;44.444;26.098;2022-12-04T03:31:08;102133.56;;;5.26;
39083;BME280;24834;44.444;26.098;2022-12-04T03:37:20;102137.19;;;5.25;
39083;BME280;24834;44.444;26.098;2022-12-04T03:50:08;102139.22;;;5.23;
39083;BME280;24834;44.444;26.098;2022-12-04T03:56:23;102131.50;;;5.01;
39083;BME280;24834;44.444;26.098;2022-12-04T04:02:29;102130.69;;;5.01;
39083;BME280;24834;44.444;26.098;2022-12-04T04:08:37;102132.06;;;4.97;
39083;BME280;24834;44.444;26.098;2022-12-04T04:14:50;102135.38;;;5.19;
39083;BME280;24834;44.444;26.098;2022-12-04T04:21:13;102131.41;;;5.29;
39083;BME280;24834;44.444;26.098;2022-12-04T04:27:37;102135.38;;;5.19;
39083;BME280;24834;44.444;26.098;2022-12-04T04:34:04;102134.41;;;5.33;
39083;BME280;24834;44.444;26.098;2022-12-04T04:40:24;102130.41;;;5.30;
39083;BME280;24834;44.444;26.098;2022-12-04T04:46:36;102143.66;;;5.35;
39083;BME280;24834;44.444;26.098;2022-12-04T04:52:43;102137.59;;;5.22;
39083;BME280;24834;44.444;26.098;2022-12-04T04:58:50;102136.38;;;5.18;
39083;BME280;24834;44.444;26.098;2022-12-04T05:04:53;102139.59;;;5.20;
39083;BME280;24834;44.444;26.098;2022-12-04T05:10:57;102136.22;;;5.32;
39083;BME280;24834;44.444;26.098;2022-12-04T05:17:04;102123.91;;;5.13;
39083;BME280;24834;44.444;26.098;2022-12-04T05:23:13;102131.50;;;5.01;
39083;BME280;24834;44.444;26.098;2022-12-04T05:29:16;102130.13;;;5.05;
39083;BME280;24834;44.444;26.098;2022-12-04T05:35:19;102135.09;;;5.00;
39083;BME280;24834;44.444;26.098;2022-12-04T05:41:22;102147.13;;;5.01;
39083;BME280;24834;44.444;26.098;2022-12-04T05:47:28;102157.66;;;5.21;
39083;BME280;24834;44.444;26.098;2022-12-04T05:53:30;102152.34;;;5.08;
39083;BME280;24834;44.444;26.098;2022-12-04T05:59:33;102147.72;;;4.97;
39083;BME280;24834;44.444;26.098;2022-12-04T06:05:36;102154.25;;;5.21;
39083;BME280;24834;44.444;26.098;2022-12-04T06:11:39;102168.84;;;5.15;
39083;BME280;24834;44.444;26.098;2022-12-04T06:17:42;102172.94;;;5.37;
39083;BME280;24834;44.444;26.098;2022-12-04T06:23:44;102182.56;;;5.37;
39083;BME280;24834;44.444;26.098;2022-12-04T06:29:46;102191.44;;;5.49;
39083;BME280;24834;44.444;26.098;2022-12-04T06:35:57;102181.16;;;5.34;
39083;BME280;24834;44.444;26.098;2022-12-04T06:42:00;102197.06;;;5.46;
39083;BME280;24834;44.444;26.098;2022-12-04T06:48:03;102193.84;;;5.50;
39083;BME280;24834;44.444;26.098;2022-12-04T06:54:08;102193.66;;;5.58;
39083;BME280;24834;44.444;26.098;2022-12-04T07:00:10;102204.09;;;5.52;
39083;BME280;24834;44.444;26.098;2022-12-04T07:06:30;102198.31;;;5.63;
39083;BME280;24834;44.444;26.098;2022-12-04T07:12:34;102200.31;;;5.54;
39083;BME280;24834;44.444;26.098;2022-12-04T07:18:39;102191.88;;;5.52;
39083;BME280;24834;44.444;26.098;2022-12-04T07:24:41;102192.19;;;5.43;
39083;BME280;24834;44.444;26.098;2022-12-04T07:30:44;102201.53;;;5.65;
39083;BME280;24834;44.444;26.098;2022-12-04T07:36:46;102220.06;;;5.83;
39083;BME280;24834;44.444;26.098;2022-12-04T07:42:49;102222.44;;;5.78;
39083;BME280;24834;44.444;26.098;2022-12-04T07:48:56;102230.69;;;6.01;
39083;BME280;24834;44.444;26.098;2022-12-04T07:54:58;102232.06;;;5.71;
39083;BME280;24834;44.444;26.098;2022-12-04T08:01:22;102229.69;;;5.83;
39083;BME280;24834;44.444;26.098;2022-12-04T08:07:24;102231.47;;;5.89;
39083;BME280;24834;44.444;26.098;2022-12-04T08:13:27;102240.75;;;6.04;
39083;BME280;24834;44.444;26.098;2022-12-04T08:19:31;102232.09;;;5.97;
39083;BME280;24834;44.444;26.098;2022-12-04T08:25:37;102226.88;;;5.97;
39083;BME280;24834;44.444;26.098;2022-12-04T08:31:42;102234.16;;;6.09;
39083;BME280;24834;44.444;26.098;2022-12-04T08:37:44;102224.91;;;6.13;
39083;BME280;24834;44.444;26.098;2022-12-04T08:43:47;102222.47;;;6.04;
39083;BME280;24834;44.444;26.098;2022-12-04T08:49:49;102218.88;;;5.99;
39083;BME280;24834;44.444;26.098;2022-12-04T08:55:52;102218.25;;;6.17;
39083;BME280;24834;44.444;26.098;2022-12-04T09:01:55;102211.22;;;6.17;
39083;BME280;24834;44.444;26.098;2022-12-04T09:07:58;102196.34;;;6.31;
